<?xml version="1.0" encoding="UTF-8" standalone="no" ?>
<gpx xmlns="http://www.topografix.com/GPX/1/1" xmlns:xsi="http://www.w3.org/2001/XMLSchema-instance" xsi:schemaLocation="http://www.topografix.com/GPX/1/1 http://www.topografix.com/GPX/1/1/gpx.xsd" version="1.1" creator="VisuGPX - https://www.visugpx.com">
  <metadata>
    <name>2022-02-14-46-LAROQUE ARCS ST ROCH-MIRELASSE</name>
    <desc><![CDATA[Randonnée de 10,3km pour environ 320m de dénivelé positif . Un circuit au départ de la chapelle St Roch puis Mels, Miralasse et Vernoly en passant par le haut des crêtes]]></desc>
  </metadata>
  <trk>
    <name><![CDATA[LAROQUE ARCS ST ROCHMIRELASSE]]></name>
    <trkseg>
      <trkpt lat="44.4766" lon="1.46794">
        <ele>121.26</ele>
        <time>2022-02-14T12:56:59Z</time>
      </trkpt>
      <trkpt lat="44.47642" lon="1.46791">
        <ele>120.78</ele>
        <time>2022-02-14T12:57:19Z</time>
      </trkpt>
      <trkpt lat="44.47623" lon="1.46797">
        <ele>121.74</ele>
        <time>2022-02-14T12:57:37Z</time>
      </trkpt>
      <trkpt lat="44.47604" lon="1.46797">
        <ele>121.74</ele>
        <time>2022-02-14T12:57:55Z</time>
      </trkpt>
      <trkpt lat="44.47585" lon="1.46802">
        <ele>121.74</ele>
        <time>2022-02-14T12:58:16Z</time>
      </trkpt>
      <trkpt lat="44.47562" lon="1.46808">
        <ele>120.3</ele>
        <time>2022-02-14T12:58:37Z</time>
      </trkpt>
      <trkpt lat="44.47538" lon="1.46836">
        <ele>120.78</ele>
        <time>2022-02-14T12:59:07Z</time>
      </trkpt>
      <trkpt lat="44.4752" lon="1.46846">
        <ele>117.42</ele>
        <time>2022-02-14T12:59:29Z</time>
      </trkpt>
      <trkpt lat="44.47513" lon="1.4685">
        <ele>115.98</ele>
        <time>2022-02-14T13:00:34Z</time>
      </trkpt>
      <trkpt lat="44.47534" lon="1.46853">
        <ele>119.82</ele>
        <time>2022-02-14T13:00:58Z</time>
      </trkpt>
      <trkpt lat="44.4754" lon="1.46881">
        <ele>120.78</ele>
        <time>2022-02-14T13:01:19Z</time>
      </trkpt>
      <trkpt lat="44.4754" lon="1.46908">
        <ele>122.22</ele>
        <time>2022-02-14T13:01:38Z</time>
      </trkpt>
      <trkpt lat="44.47543" lon="1.46933">
        <ele>125.59</ele>
        <time>2022-02-14T13:02:03Z</time>
      </trkpt>
      <trkpt lat="44.47559" lon="1.46948">
        <ele>129.92</ele>
        <time>2022-02-14T13:02:33Z</time>
      </trkpt>
      <trkpt lat="44.47575" lon="1.46954">
        <ele>133.76</ele>
        <time>2022-02-14T13:03:02Z</time>
      </trkpt>
      <trkpt lat="44.47593" lon="1.46965">
        <ele>140.49</ele>
        <time>2022-02-14T13:03:41Z</time>
      </trkpt>
      <trkpt lat="44.47609" lon="1.4698">
        <ele>144.34</ele>
        <time>2022-02-14T13:04:14Z</time>
      </trkpt>
      <trkpt lat="44.47599" lon="1.46998">
        <ele>148.18</ele>
        <time>2022-02-14T13:04:50Z</time>
      </trkpt>
      <trkpt lat="44.47578" lon="1.47005">
        <ele>151.06</ele>
        <time>2022-02-14T13:05:20Z</time>
      </trkpt>
      <trkpt lat="44.47558" lon="1.4701">
        <ele>152.99</ele>
        <time>2022-02-14T13:05:43Z</time>
      </trkpt>
      <trkpt lat="44.47541" lon="1.4701">
        <ele>153.95</ele>
        <time>2022-02-14T13:06:12Z</time>
      </trkpt>
      <trkpt lat="44.47549" lon="1.47029">
        <ele>154.43</ele>
        <time>2022-02-14T13:06:57Z</time>
      </trkpt>
      <trkpt lat="44.47548" lon="1.47043">
        <ele>152.03</ele>
        <time>2022-02-14T13:08:05Z</time>
      </trkpt>
      <trkpt lat="44.47546" lon="1.4702">
        <ele>154.91</ele>
        <time>2022-02-14T13:08:33Z</time>
      </trkpt>
      <trkpt lat="44.47561" lon="1.47035">
        <ele>159.72</ele>
        <time>2022-02-14T13:09:26Z</time>
      </trkpt>
      <trkpt lat="44.4758" lon="1.47049">
        <ele>166.93</ele>
        <time>2022-02-14T13:10:07Z</time>
      </trkpt>
      <trkpt lat="44.47586" lon="1.47073">
        <ele>175.1</ele>
        <time>2022-02-14T13:10:54Z</time>
      </trkpt>
      <trkpt lat="44.47587" lon="1.47091">
        <ele>181.35</ele>
        <time>2022-02-14T13:12:23Z</time>
      </trkpt>
      <trkpt lat="44.47603" lon="1.47104">
        <ele>185.19</ele>
        <time>2022-02-14T13:12:56Z</time>
      </trkpt>
      <trkpt lat="44.47608" lon="1.47129">
        <ele>193.36</ele>
        <time>2022-02-14T13:13:38Z</time>
      </trkpt>
      <trkpt lat="44.47612" lon="1.47154">
        <ele>199.61</ele>
        <time>2022-02-14T13:14:15Z</time>
      </trkpt>
      <trkpt lat="44.47613" lon="1.47181">
        <ele>204.9</ele>
        <time>2022-02-14T13:14:51Z</time>
      </trkpt>
      <trkpt lat="44.47607" lon="1.47207">
        <ele>210.67</ele>
        <time>2022-02-14T13:15:31Z</time>
      </trkpt>
      <trkpt lat="44.47597" lon="1.47233">
        <ele>213.55</ele>
        <time>2022-02-14T13:16:03Z</time>
      </trkpt>
      <trkpt lat="44.47593" lon="1.4726">
        <ele>215.47</ele>
        <time>2022-02-14T13:16:28Z</time>
      </trkpt>
      <trkpt lat="44.4759" lon="1.47284">
        <ele>218.84</ele>
        <time>2022-02-14T13:16:50Z</time>
      </trkpt>
      <trkpt lat="44.4759" lon="1.47311">
        <ele>218.36</ele>
        <time>2022-02-14T13:17:19Z</time>
      </trkpt>
      <trkpt lat="44.4758" lon="1.4733">
        <ele>221.24</ele>
        <time>2022-02-14T13:19:03Z</time>
      </trkpt>
      <trkpt lat="44.47583" lon="1.47356">
        <ele>223.16</ele>
        <time>2022-02-14T13:19:27Z</time>
      </trkpt>
      <trkpt lat="44.47582" lon="1.47382">
        <ele>225.57</ele>
        <time>2022-02-14T13:19:53Z</time>
      </trkpt>
      <trkpt lat="44.47583" lon="1.47407">
        <ele>229.89</ele>
        <time>2022-02-14T13:20:19Z</time>
      </trkpt>
      <trkpt lat="44.47583" lon="1.47433">
        <ele>232.78</ele>
        <time>2022-02-14T13:20:49Z</time>
      </trkpt>
      <trkpt lat="44.47588" lon="1.4746">
        <ele>236.62</ele>
        <time>2022-02-14T13:21:20Z</time>
      </trkpt>
      <trkpt lat="44.47596" lon="1.47483">
        <ele>237.1</ele>
        <time>2022-02-14T13:21:42Z</time>
      </trkpt>
      <trkpt lat="44.476" lon="1.4751">
        <ele>239.02</ele>
        <time>2022-02-14T13:22:04Z</time>
      </trkpt>
      <trkpt lat="44.47596" lon="1.47537">
        <ele>241.43</ele>
        <time>2022-02-14T13:22:33Z</time>
      </trkpt>
      <trkpt lat="44.47596" lon="1.47567">
        <ele>246.23</ele>
        <time>2022-02-14T13:23:12Z</time>
      </trkpt>
      <trkpt lat="44.47592" lon="1.47595">
        <ele>248.16</ele>
        <time>2022-02-14T13:23:42Z</time>
      </trkpt>
      <trkpt lat="44.47589" lon="1.47629">
        <ele>251.04</ele>
        <time>2022-02-14T13:24:17Z</time>
      </trkpt>
      <trkpt lat="44.47573" lon="1.47654">
        <ele>250.08</ele>
        <time>2022-02-14T13:24:43Z</time>
      </trkpt>
      <trkpt lat="44.47578" lon="1.47683">
        <ele>252</ele>
        <time>2022-02-14T13:25:09Z</time>
      </trkpt>
      <trkpt lat="44.47578" lon="1.47714">
        <ele>251.04</ele>
        <time>2022-02-14T13:25:31Z</time>
      </trkpt>
      <trkpt lat="44.4758" lon="1.4774">
        <ele>248.64</ele>
        <time>2022-02-14T13:25:54Z</time>
      </trkpt>
      <trkpt lat="44.47576" lon="1.47768">
        <ele>246.72</ele>
        <time>2022-02-14T13:26:21Z</time>
      </trkpt>
      <trkpt lat="44.47571" lon="1.47799">
        <ele>244.79</ele>
        <time>2022-02-14T13:26:44Z</time>
      </trkpt>
      <trkpt lat="44.47557" lon="1.47829">
        <ele>243.83</ele>
        <time>2022-02-14T13:27:14Z</time>
      </trkpt>
      <trkpt lat="44.47546" lon="1.47853">
        <ele>239.02</ele>
        <time>2022-02-14T13:27:48Z</time>
      </trkpt>
      <trkpt lat="44.47534" lon="1.47879">
        <ele>239.02</ele>
        <time>2022-02-14T13:28:15Z</time>
      </trkpt>
      <trkpt lat="44.4752" lon="1.47902">
        <ele>239.02</ele>
        <time>2022-02-14T13:28:39Z</time>
      </trkpt>
      <trkpt lat="44.47514" lon="1.4793">
        <ele>239.02</ele>
        <time>2022-02-14T13:29:02Z</time>
      </trkpt>
      <trkpt lat="44.47505" lon="1.47957">
        <ele>239.99</ele>
        <time>2022-02-14T13:29:24Z</time>
      </trkpt>
      <trkpt lat="44.47494" lon="1.4798">
        <ele>240.95</ele>
        <time>2022-02-14T13:29:47Z</time>
      </trkpt>
      <trkpt lat="44.47489" lon="1.48009">
        <ele>244.31</ele>
        <time>2022-02-14T13:30:18Z</time>
      </trkpt>
      <trkpt lat="44.47489" lon="1.48034">
        <ele>249.12</ele>
        <time>2022-02-14T13:30:50Z</time>
      </trkpt>
      <trkpt lat="44.47484" lon="1.48061">
        <ele>252.96</ele>
        <time>2022-02-14T13:31:21Z</time>
      </trkpt>
      <trkpt lat="44.47474" lon="1.48089">
        <ele>255.85</ele>
        <time>2022-02-14T13:31:47Z</time>
      </trkpt>
      <trkpt lat="44.47467" lon="1.48112">
        <ele>257.77</ele>
        <time>2022-02-14T13:32:15Z</time>
      </trkpt>
      <trkpt lat="44.47478" lon="1.48113">
        <ele>258.25</ele>
        <time>2022-02-14T13:33:57Z</time>
      </trkpt>
      <trkpt lat="44.47498" lon="1.48115">
        <ele>255.85</ele>
        <time>2022-02-14T13:34:17Z</time>
      </trkpt>
      <trkpt lat="44.47514" lon="1.48104">
        <ele>253.93</ele>
        <time>2022-02-14T13:34:36Z</time>
      </trkpt>
      <trkpt lat="44.47534" lon="1.48096">
        <ele>252</ele>
        <time>2022-02-14T13:34:57Z</time>
      </trkpt>
      <trkpt lat="44.47554" lon="1.48099">
        <ele>247.68</ele>
        <time>2022-02-14T13:35:24Z</time>
      </trkpt>
      <trkpt lat="44.47577" lon="1.48112">
        <ele>246.23</ele>
        <time>2022-02-14T13:35:47Z</time>
      </trkpt>
      <trkpt lat="44.47598" lon="1.4812">
        <ele>245.75</ele>
        <time>2022-02-14T13:36:09Z</time>
      </trkpt>
      <trkpt lat="44.47617" lon="1.48127">
        <ele>247.2</ele>
        <time>2022-02-14T13:36:30Z</time>
      </trkpt>
      <trkpt lat="44.47636" lon="1.48137">
        <ele>246.23</ele>
        <time>2022-02-14T13:36:48Z</time>
      </trkpt>
      <trkpt lat="44.47653" lon="1.48149">
        <ele>247.2</ele>
        <time>2022-02-14T13:37:05Z</time>
      </trkpt>
      <trkpt lat="44.47671" lon="1.4816">
        <ele>247.2</ele>
        <time>2022-02-14T13:37:23Z</time>
      </trkpt>
      <trkpt lat="44.4769" lon="1.48165">
        <ele>247.2</ele>
        <time>2022-02-14T13:37:42Z</time>
      </trkpt>
      <trkpt lat="44.47711" lon="1.48168">
        <ele>247.68</ele>
        <time>2022-02-14T13:38:01Z</time>
      </trkpt>
      <trkpt lat="44.47729" lon="1.48171">
        <ele>249.12</ele>
        <time>2022-02-14T13:38:24Z</time>
      </trkpt>
      <trkpt lat="44.47749" lon="1.48174">
        <ele>250.08</ele>
        <time>2022-02-14T13:38:41Z</time>
      </trkpt>
      <trkpt lat="44.47765" lon="1.48171">
        <ele>252.48</ele>
        <time>2022-02-14T13:38:59Z</time>
      </trkpt>
      <trkpt lat="44.47782" lon="1.48167">
        <ele>254.89</ele>
        <time>2022-02-14T13:39:20Z</time>
      </trkpt>
      <trkpt lat="44.47803" lon="1.48169">
        <ele>256.81</ele>
        <time>2022-02-14T13:39:43Z</time>
      </trkpt>
      <trkpt lat="44.47823" lon="1.48155">
        <ele>260.17</ele>
        <time>2022-02-14T13:40:19Z</time>
      </trkpt>
      <trkpt lat="44.47847" lon="1.48139">
        <ele>263.06</ele>
        <time>2022-02-14T13:40:50Z</time>
      </trkpt>
      <trkpt lat="44.47869" lon="1.48127">
        <ele>265.46</ele>
        <time>2022-02-14T13:41:15Z</time>
      </trkpt>
      <trkpt lat="44.47891" lon="1.4812">
        <ele>265.46</ele>
        <time>2022-02-14T13:41:37Z</time>
      </trkpt>
      <trkpt lat="44.47915" lon="1.48118">
        <ele>265.94</ele>
        <time>2022-02-14T13:42:00Z</time>
      </trkpt>
      <trkpt lat="44.47939" lon="1.48124">
        <ele>264.5</ele>
        <time>2022-02-14T13:42:24Z</time>
      </trkpt>
      <trkpt lat="44.47965" lon="1.48129">
        <ele>262.58</ele>
        <time>2022-02-14T13:42:48Z</time>
      </trkpt>
      <trkpt lat="44.47992" lon="1.48131">
        <ele>259.69</ele>
        <time>2022-02-14T13:43:15Z</time>
      </trkpt>
      <trkpt lat="44.48013" lon="1.48144">
        <ele>259.21</ele>
        <time>2022-02-14T13:43:38Z</time>
      </trkpt>
      <trkpt lat="44.48032" lon="1.48154">
        <ele>258.73</ele>
        <time>2022-02-14T13:43:58Z</time>
      </trkpt>
      <trkpt lat="44.48052" lon="1.48164">
        <ele>258.73</ele>
        <time>2022-02-14T13:44:18Z</time>
      </trkpt>
      <trkpt lat="44.48072" lon="1.48174">
        <ele>261.14</ele>
        <time>2022-02-14T13:44:41Z</time>
      </trkpt>
      <trkpt lat="44.48092" lon="1.48186">
        <ele>264.02</ele>
        <time>2022-02-14T13:45:07Z</time>
      </trkpt>
      <trkpt lat="44.48114" lon="1.48198">
        <ele>267.86</ele>
        <time>2022-02-14T13:45:35Z</time>
      </trkpt>
      <trkpt lat="44.48136" lon="1.48212">
        <ele>269.79</ele>
        <time>2022-02-14T13:46:03Z</time>
      </trkpt>
      <trkpt lat="44.48156" lon="1.48225">
        <ele>271.23</ele>
        <time>2022-02-14T13:46:27Z</time>
      </trkpt>
      <trkpt lat="44.48177" lon="1.48238">
        <ele>271.71</ele>
        <time>2022-02-14T13:46:48Z</time>
      </trkpt>
      <trkpt lat="44.48197" lon="1.48246">
        <ele>271.71</ele>
        <time>2022-02-14T13:47:07Z</time>
      </trkpt>
      <trkpt lat="44.48213" lon="1.48259">
        <ele>271.71</ele>
        <time>2022-02-14T13:47:30Z</time>
      </trkpt>
      <trkpt lat="44.4823" lon="1.48274">
        <ele>271.71</ele>
        <time>2022-02-14T13:47:48Z</time>
      </trkpt>
      <trkpt lat="44.48249" lon="1.48288">
        <ele>271.71</ele>
        <time>2022-02-14T13:48:07Z</time>
      </trkpt>
      <trkpt lat="44.48266" lon="1.48301">
        <ele>271.71</ele>
        <time>2022-02-14T13:48:25Z</time>
      </trkpt>
      <trkpt lat="44.48276" lon="1.48317">
        <ele>272.67</ele>
        <time>2022-02-14T13:49:21Z</time>
      </trkpt>
      <trkpt lat="44.48288" lon="1.48343">
        <ele>273.63</ele>
        <time>2022-02-14T13:49:43Z</time>
      </trkpt>
      <trkpt lat="44.48297" lon="1.48369">
        <ele>274.11</ele>
        <time>2022-02-14T13:50:05Z</time>
      </trkpt>
      <trkpt lat="44.48304" lon="1.48395">
        <ele>277</ele>
        <time>2022-02-14T13:50:27Z</time>
      </trkpt>
      <trkpt lat="44.48311" lon="1.48417">
        <ele>278.92</ele>
        <time>2022-02-14T13:50:51Z</time>
      </trkpt>
      <trkpt lat="44.48318" lon="1.48446">
        <ele>282.77</ele>
        <time>2022-02-14T13:51:20Z</time>
      </trkpt>
      <trkpt lat="44.48327" lon="1.4848">
        <ele>286.61</ele>
        <time>2022-02-14T13:51:49Z</time>
      </trkpt>
      <trkpt lat="44.48332" lon="1.48507">
        <ele>289.97</ele>
        <time>2022-02-14T13:52:18Z</time>
      </trkpt>
      <trkpt lat="44.48332" lon="1.4854">
        <ele>293.34</ele>
        <time>2022-02-14T13:52:51Z</time>
      </trkpt>
      <trkpt lat="44.48326" lon="1.48575">
        <ele>295.74</ele>
        <time>2022-02-14T13:53:16Z</time>
      </trkpt>
      <trkpt lat="44.48322" lon="1.48606">
        <ele>298.63</ele>
        <time>2022-02-14T13:53:41Z</time>
      </trkpt>
      <trkpt lat="44.48318" lon="1.48635">
        <ele>300.55</ele>
        <time>2022-02-14T13:54:07Z</time>
      </trkpt>
      <trkpt lat="44.48315" lon="1.48662">
        <ele>301.99</ele>
        <time>2022-02-14T13:58:37Z</time>
      </trkpt>
      <trkpt lat="44.48311" lon="1.48694">
        <ele>303.91</ele>
        <time>2022-02-14T13:59:00Z</time>
      </trkpt>
      <trkpt lat="44.4831" lon="1.48724">
        <ele>304.39</ele>
        <time>2022-02-14T13:59:22Z</time>
      </trkpt>
      <trkpt lat="44.48313" lon="1.48754">
        <ele>303.43</ele>
        <time>2022-02-14T13:59:41Z</time>
      </trkpt>
      <trkpt lat="44.4831" lon="1.48783">
        <ele>303.43</ele>
        <time>2022-02-14T14:00:02Z</time>
      </trkpt>
      <trkpt lat="44.48304" lon="1.4881">
        <ele>302.95</ele>
        <time>2022-02-14T14:00:20Z</time>
      </trkpt>
      <trkpt lat="44.48298" lon="1.48837">
        <ele>301.51</ele>
        <time>2022-02-14T14:00:37Z</time>
      </trkpt>
      <trkpt lat="44.48294" lon="1.48865">
        <ele>300.07</ele>
        <time>2022-02-14T14:00:56Z</time>
      </trkpt>
      <trkpt lat="44.48297" lon="1.48893">
        <ele>298.63</ele>
        <time>2022-02-14T14:01:15Z</time>
      </trkpt>
      <trkpt lat="44.48297" lon="1.48919">
        <ele>296.7</ele>
        <time>2022-02-14T14:01:33Z</time>
      </trkpt>
      <trkpt lat="44.48295" lon="1.48945">
        <ele>294.78</ele>
        <time>2022-02-14T14:01:50Z</time>
      </trkpt>
      <trkpt lat="44.48291" lon="1.48975">
        <ele>293.34</ele>
        <time>2022-02-14T14:02:09Z</time>
      </trkpt>
      <trkpt lat="44.48287" lon="1.49003">
        <ele>292.38</ele>
        <time>2022-02-14T14:02:28Z</time>
      </trkpt>
      <trkpt lat="44.48285" lon="1.4903">
        <ele>291.9</ele>
        <time>2022-02-14T14:02:45Z</time>
      </trkpt>
      <trkpt lat="44.48285" lon="1.49059">
        <ele>290.94</ele>
        <time>2022-02-14T14:03:02Z</time>
      </trkpt>
      <trkpt lat="44.48288" lon="1.49085">
        <ele>290.46</ele>
        <time>2022-02-14T14:03:18Z</time>
      </trkpt>
      <trkpt lat="44.48292" lon="1.4911">
        <ele>290.46</ele>
        <time>2022-02-14T14:03:49Z</time>
      </trkpt>
      <trkpt lat="44.48307" lon="1.49128">
        <ele>290.46</ele>
        <time>2022-02-14T14:04:08Z</time>
      </trkpt>
      <trkpt lat="44.48323" lon="1.49125">
        <ele>290.46</ele>
        <time>2022-02-14T14:04:28Z</time>
      </trkpt>
      <trkpt lat="44.48337" lon="1.49109">
        <ele>289.97</ele>
        <time>2022-02-14T14:04:46Z</time>
      </trkpt>
      <trkpt lat="44.4835" lon="1.49091">
        <ele>289.49</ele>
        <time>2022-02-14T14:05:05Z</time>
      </trkpt>
      <trkpt lat="44.48349" lon="1.49065">
        <ele>289.01</ele>
        <time>2022-02-14T14:05:23Z</time>
      </trkpt>
      <trkpt lat="44.48345" lon="1.49037">
        <ele>288.05</ele>
        <time>2022-02-14T14:05:42Z</time>
      </trkpt>
      <trkpt lat="44.48342" lon="1.49009">
        <ele>287.57</ele>
        <time>2022-02-14T14:05:59Z</time>
      </trkpt>
      <trkpt lat="44.48349" lon="1.48982">
        <ele>285.17</ele>
        <time>2022-02-14T14:06:20Z</time>
      </trkpt>
      <trkpt lat="44.48357" lon="1.48947">
        <ele>281.8</ele>
        <time>2022-02-14T14:07:02Z</time>
      </trkpt>
      <trkpt lat="44.48363" lon="1.48913">
        <ele>278.92</ele>
        <time>2022-02-14T14:07:26Z</time>
      </trkpt>
      <trkpt lat="44.48376" lon="1.48889">
        <ele>275.56</ele>
        <time>2022-02-14T14:07:44Z</time>
      </trkpt>
      <trkpt lat="44.48397" lon="1.48887">
        <ele>271.71</ele>
        <time>2022-02-14T14:08:04Z</time>
      </trkpt>
      <trkpt lat="44.4842" lon="1.48897">
        <ele>268.83</ele>
        <time>2022-02-14T14:08:27Z</time>
      </trkpt>
      <trkpt lat="44.48426" lon="1.48906">
        <ele>266.42</ele>
        <time>2022-02-14T14:09:41Z</time>
      </trkpt>
      <trkpt lat="44.48445" lon="1.48919">
        <ele>262.58</ele>
        <time>2022-02-14T14:10:02Z</time>
      </trkpt>
      <trkpt lat="44.4847" lon="1.48931">
        <ele>258.25</ele>
        <time>2022-02-14T14:10:39Z</time>
      </trkpt>
      <trkpt lat="44.48488" lon="1.4895">
        <ele>253.93</ele>
        <time>2022-02-14T14:11:06Z</time>
      </trkpt>
      <trkpt lat="44.48505" lon="1.48978">
        <ele>249.6</ele>
        <time>2022-02-14T14:11:36Z</time>
      </trkpt>
      <trkpt lat="44.48521" lon="1.49013">
        <ele>246.72</ele>
        <time>2022-02-14T14:11:59Z</time>
      </trkpt>
      <trkpt lat="44.48527" lon="1.49042">
        <ele>244.31</ele>
        <time>2022-02-14T14:12:22Z</time>
      </trkpt>
      <trkpt lat="44.48534" lon="1.49075">
        <ele>242.39</ele>
        <time>2022-02-14T14:12:45Z</time>
      </trkpt>
      <trkpt lat="44.48538" lon="1.49106">
        <ele>240.47</ele>
        <time>2022-02-14T14:13:07Z</time>
      </trkpt>
      <trkpt lat="44.48541" lon="1.49143">
        <ele>238.06</ele>
        <time>2022-02-14T14:13:33Z</time>
      </trkpt>
      <trkpt lat="44.48548" lon="1.49175">
        <ele>236.62</ele>
        <time>2022-02-14T14:13:57Z</time>
      </trkpt>
      <trkpt lat="44.48558" lon="1.49207">
        <ele>233.74</ele>
        <time>2022-02-14T14:14:19Z</time>
      </trkpt>
      <trkpt lat="44.48569" lon="1.49236">
        <ele>231.33</ele>
        <time>2022-02-14T14:14:41Z</time>
      </trkpt>
      <trkpt lat="44.48579" lon="1.49267">
        <ele>228.93</ele>
        <time>2022-02-14T14:15:01Z</time>
      </trkpt>
      <trkpt lat="44.48584" lon="1.49299">
        <ele>227.97</ele>
        <time>2022-02-14T14:16:15Z</time>
      </trkpt>
      <trkpt lat="44.48581" lon="1.49329">
        <ele>227.49</ele>
        <time>2022-02-14T14:16:32Z</time>
      </trkpt>
      <trkpt lat="44.48572" lon="1.49355">
        <ele>227.01</ele>
        <time>2022-02-14T14:16:49Z</time>
      </trkpt>
      <trkpt lat="44.48563" lon="1.49381">
        <ele>227.01</ele>
        <time>2022-02-14T14:17:06Z</time>
      </trkpt>
      <trkpt lat="44.48555" lon="1.49408">
        <ele>226.05</ele>
        <time>2022-02-14T14:17:23Z</time>
      </trkpt>
      <trkpt lat="44.48547" lon="1.49433">
        <ele>225.57</ele>
        <time>2022-02-14T14:17:39Z</time>
      </trkpt>
      <trkpt lat="44.4854" lon="1.49458">
        <ele>225.09</ele>
        <time>2022-02-14T14:17:55Z</time>
      </trkpt>
      <trkpt lat="44.48534" lon="1.49485">
        <ele>225.09</ele>
        <time>2022-02-14T14:18:10Z</time>
      </trkpt>
      <trkpt lat="44.48531" lon="1.49513">
        <ele>225.09</ele>
        <time>2022-02-14T14:18:26Z</time>
      </trkpt>
      <trkpt lat="44.48529" lon="1.4954">
        <ele>224.61</ele>
        <time>2022-02-14T14:18:42Z</time>
      </trkpt>
      <trkpt lat="44.48528" lon="1.49566">
        <ele>224.61</ele>
        <time>2022-02-14T14:18:59Z</time>
      </trkpt>
      <trkpt lat="44.48525" lon="1.4959">
        <ele>224.61</ele>
        <time>2022-02-14T14:19:26Z</time>
      </trkpt>
      <trkpt lat="44.48521" lon="1.49618">
        <ele>224.61</ele>
        <time>2022-02-14T14:19:45Z</time>
      </trkpt>
      <trkpt lat="44.48515" lon="1.49643">
        <ele>226.05</ele>
        <time>2022-02-14T14:20:38Z</time>
      </trkpt>
      <trkpt lat="44.48506" lon="1.49659">
        <ele>225.57</ele>
        <time>2022-02-14T14:21:41Z</time>
      </trkpt>
      <trkpt lat="44.48496" lon="1.49681">
        <ele>225.57</ele>
        <time>2022-02-14T14:21:59Z</time>
      </trkpt>
      <trkpt lat="44.48486" lon="1.49702">
        <ele>225.57</ele>
        <time>2022-02-14T14:22:15Z</time>
      </trkpt>
      <trkpt lat="44.48475" lon="1.49724">
        <ele>225.57</ele>
        <time>2022-02-14T14:22:32Z</time>
      </trkpt>
      <trkpt lat="44.48467" lon="1.4975">
        <ele>226.05</ele>
        <time>2022-02-14T14:22:55Z</time>
      </trkpt>
      <trkpt lat="44.48468" lon="1.49776">
        <ele>228.45</ele>
        <time>2022-02-14T14:23:23Z</time>
      </trkpt>
      <trkpt lat="44.48465" lon="1.49803">
        <ele>230.37</ele>
        <time>2022-02-14T14:23:46Z</time>
      </trkpt>
      <trkpt lat="44.48459" lon="1.49828">
        <ele>233.26</ele>
        <time>2022-02-14T14:24:07Z</time>
      </trkpt>
      <trkpt lat="44.48451" lon="1.49854">
        <ele>235.18</ele>
        <time>2022-02-14T14:24:38Z</time>
      </trkpt>
      <trkpt lat="44.48444" lon="1.49879">
        <ele>238.54</ele>
        <time>2022-02-14T14:25:05Z</time>
      </trkpt>
      <trkpt lat="44.48439" lon="1.49904">
        <ele>241.91</ele>
        <time>2022-02-14T14:25:27Z</time>
      </trkpt>
      <trkpt lat="44.4844" lon="1.49931">
        <ele>244.79</ele>
        <time>2022-02-14T14:25:52Z</time>
      </trkpt>
      <trkpt lat="44.48484" lon="1.49984">
        <ele>247.68</ele>
        <time>2022-02-14T14:26:51Z</time>
      </trkpt>
      <trkpt lat="44.48499" lon="1.50018">
        <ele>248.16</ele>
        <time>2022-02-14T14:27:08Z</time>
      </trkpt>
      <trkpt lat="44.48511" lon="1.50035">
        <ele>248.16</ele>
        <time>2022-02-14T14:27:29Z</time>
      </trkpt>
      <trkpt lat="44.48526" lon="1.50049">
        <ele>248.16</ele>
        <time>2022-02-14T14:27:45Z</time>
      </trkpt>
      <trkpt lat="44.48544" lon="1.50061">
        <ele>247.2</ele>
        <time>2022-02-14T14:28:02Z</time>
      </trkpt>
      <trkpt lat="44.48562" lon="1.50072">
        <ele>245.75</ele>
        <time>2022-02-14T14:28:18Z</time>
      </trkpt>
      <trkpt lat="44.4858" lon="1.50083">
        <ele>245.75</ele>
        <time>2022-02-14T14:28:33Z</time>
      </trkpt>
      <trkpt lat="44.48598" lon="1.50094">
        <ele>245.27</ele>
        <time>2022-02-14T14:28:50Z</time>
      </trkpt>
      <trkpt lat="44.48616" lon="1.50105">
        <ele>245.27</ele>
        <time>2022-02-14T14:29:08Z</time>
      </trkpt>
      <trkpt lat="44.48636" lon="1.50113">
        <ele>248.16</ele>
        <time>2022-02-14T14:29:28Z</time>
      </trkpt>
      <trkpt lat="44.48654" lon="1.50116">
        <ele>251.04</ele>
        <time>2022-02-14T14:30:08Z</time>
      </trkpt>
      <trkpt lat="44.48677" lon="1.5011">
        <ele>254.41</ele>
        <time>2022-02-14T14:32:31Z</time>
      </trkpt>
      <trkpt lat="44.48697" lon="1.50107">
        <ele>259.21</ele>
        <time>2022-02-14T14:33:01Z</time>
      </trkpt>
      <trkpt lat="44.48721" lon="1.50103">
        <ele>263.54</ele>
        <time>2022-02-14T14:33:35Z</time>
      </trkpt>
      <trkpt lat="44.48743" lon="1.50103">
        <ele>267.86</ele>
        <time>2022-02-14T14:34:03Z</time>
      </trkpt>
      <trkpt lat="44.48766" lon="1.50107">
        <ele>271.71</ele>
        <time>2022-02-14T14:34:35Z</time>
      </trkpt>
      <trkpt lat="44.48789" lon="1.50116">
        <ele>276.04</ele>
        <time>2022-02-14T14:35:06Z</time>
      </trkpt>
      <trkpt lat="44.48808" lon="1.5012">
        <ele>279.4</ele>
        <time>2022-02-14T14:35:32Z</time>
      </trkpt>
      <trkpt lat="44.48831" lon="1.50131">
        <ele>282.28</ele>
        <time>2022-02-14T14:35:59Z</time>
      </trkpt>
      <trkpt lat="44.48847" lon="1.50128">
        <ele>283.73</ele>
        <time>2022-02-14T14:39:04Z</time>
      </trkpt>
      <trkpt lat="44.48866" lon="1.50114">
        <ele>285.17</ele>
        <time>2022-02-14T14:39:23Z</time>
      </trkpt>
      <trkpt lat="44.48881" lon="1.501">
        <ele>287.09</ele>
        <time>2022-02-14T14:39:41Z</time>
      </trkpt>
      <trkpt lat="44.48894" lon="1.50081">
        <ele>288.53</ele>
        <time>2022-02-14T14:39:59Z</time>
      </trkpt>
      <trkpt lat="44.48906" lon="1.50054">
        <ele>289.97</ele>
        <time>2022-02-14T14:40:19Z</time>
      </trkpt>
      <trkpt lat="44.48913" lon="1.50021">
        <ele>291.9</ele>
        <time>2022-02-14T14:40:41Z</time>
      </trkpt>
      <trkpt lat="44.48919" lon="1.49993">
        <ele>293.82</ele>
        <time>2022-02-14T14:41:00Z</time>
      </trkpt>
      <trkpt lat="44.48934" lon="1.49974">
        <ele>295.26</ele>
        <time>2022-02-14T14:41:22Z</time>
      </trkpt>
      <trkpt lat="44.48953" lon="1.49979">
        <ele>296.7</ele>
        <time>2022-02-14T14:41:42Z</time>
      </trkpt>
      <trkpt lat="44.48967" lon="1.49996">
        <ele>298.15</ele>
        <time>2022-02-14T14:42:00Z</time>
      </trkpt>
      <trkpt lat="44.48983" lon="1.50016">
        <ele>301.03</ele>
        <time>2022-02-14T14:42:19Z</time>
      </trkpt>
      <trkpt lat="44.49001" lon="1.50029">
        <ele>301.03</ele>
        <time>2022-02-14T14:42:37Z</time>
      </trkpt>
      <trkpt lat="44.49019" lon="1.50028">
        <ele>301.51</ele>
        <time>2022-02-14T14:42:56Z</time>
      </trkpt>
      <trkpt lat="44.49028" lon="1.50005">
        <ele>303.43</ele>
        <time>2022-02-14T14:43:16Z</time>
      </trkpt>
      <trkpt lat="44.49036" lon="1.4998">
        <ele>303.91</ele>
        <time>2022-02-14T14:43:36Z</time>
      </trkpt>
      <trkpt lat="44.49045" lon="1.49955">
        <ele>305.84</ele>
        <time>2022-02-14T14:43:51Z</time>
      </trkpt>
      <trkpt lat="44.49055" lon="1.49931">
        <ele>306.32</ele>
        <time>2022-02-14T14:44:08Z</time>
      </trkpt>
      <trkpt lat="44.49065" lon="1.49908">
        <ele>306.8</ele>
        <time>2022-02-14T14:44:27Z</time>
      </trkpt>
      <trkpt lat="44.49079" lon="1.49881">
        <ele>308.24</ele>
        <time>2022-02-14T14:44:51Z</time>
      </trkpt>
      <trkpt lat="44.49091" lon="1.49854">
        <ele>308.72</ele>
        <time>2022-02-14T14:45:10Z</time>
      </trkpt>
      <trkpt lat="44.49101" lon="1.49827">
        <ele>309.2</ele>
        <time>2022-02-14T14:45:29Z</time>
      </trkpt>
      <trkpt lat="44.4911" lon="1.49802">
        <ele>310.16</ele>
        <time>2022-02-14T14:45:47Z</time>
      </trkpt>
      <trkpt lat="44.4912" lon="1.49777">
        <ele>310.16</ele>
        <time>2022-02-14T14:46:04Z</time>
      </trkpt>
      <trkpt lat="44.4913" lon="1.49752">
        <ele>310.16</ele>
        <time>2022-02-14T14:46:21Z</time>
      </trkpt>
      <trkpt lat="44.49138" lon="1.49729">
        <ele>309.2</ele>
        <time>2022-02-14T14:46:36Z</time>
      </trkpt>
      <trkpt lat="44.49149" lon="1.49709">
        <ele>309.2</ele>
        <time>2022-02-14T14:46:52Z</time>
      </trkpt>
      <trkpt lat="44.49161" lon="1.49688">
        <ele>309.2</ele>
        <time>2022-02-14T14:47:08Z</time>
      </trkpt>
      <trkpt lat="44.49176" lon="1.49668">
        <ele>309.68</ele>
        <time>2022-02-14T14:47:34Z</time>
      </trkpt>
      <trkpt lat="44.49189" lon="1.49648">
        <ele>308.24</ele>
        <time>2022-02-14T14:47:52Z</time>
      </trkpt>
      <trkpt lat="44.49192" lon="1.49625">
        <ele>307.76</ele>
        <time>2022-02-14T14:48:09Z</time>
      </trkpt>
      <trkpt lat="44.49182" lon="1.49605">
        <ele>306.8</ele>
        <time>2022-02-14T14:48:25Z</time>
      </trkpt>
      <trkpt lat="44.49171" lon="1.49583">
        <ele>306.32</ele>
        <time>2022-02-14T14:48:42Z</time>
      </trkpt>
      <trkpt lat="44.49161" lon="1.4956">
        <ele>305.36</ele>
        <time>2022-02-14T14:48:59Z</time>
      </trkpt>
      <trkpt lat="44.49155" lon="1.49534">
        <ele>304.88</ele>
        <time>2022-02-14T14:49:17Z</time>
      </trkpt>
      <trkpt lat="44.49148" lon="1.49508">
        <ele>304.88</ele>
        <time>2022-02-14T14:49:35Z</time>
      </trkpt>
      <trkpt lat="44.49143" lon="1.49481">
        <ele>304.39</ele>
        <time>2022-02-14T14:49:51Z</time>
      </trkpt>
      <trkpt lat="44.49138" lon="1.49454">
        <ele>303.91</ele>
        <time>2022-02-14T14:50:07Z</time>
      </trkpt>
      <trkpt lat="44.49133" lon="1.49429">
        <ele>302.95</ele>
        <time>2022-02-14T14:50:23Z</time>
      </trkpt>
      <trkpt lat="44.49123" lon="1.49406">
        <ele>302.47</ele>
        <time>2022-02-14T14:50:39Z</time>
      </trkpt>
      <trkpt lat="44.49109" lon="1.49391">
        <ele>302.47</ele>
        <time>2022-02-14T14:50:55Z</time>
      </trkpt>
      <trkpt lat="44.4909" lon="1.49383">
        <ele>301.99</ele>
        <time>2022-02-14T14:51:12Z</time>
      </trkpt>
      <trkpt lat="44.49074" lon="1.49373">
        <ele>302.95</ele>
        <time>2022-02-14T14:51:34Z</time>
      </trkpt>
      <trkpt lat="44.49083" lon="1.49366">
        <ele>300.07</ele>
        <time>2022-02-14T14:52:01Z</time>
      </trkpt>
      <trkpt lat="44.49105" lon="1.49368">
        <ele>297.67</ele>
        <time>2022-02-14T14:52:23Z</time>
      </trkpt>
      <trkpt lat="44.49124" lon="1.49374">
        <ele>294.78</ele>
        <time>2022-02-14T14:52:51Z</time>
      </trkpt>
      <trkpt lat="44.49145" lon="1.49387">
        <ele>292.86</ele>
        <time>2022-02-14T14:53:17Z</time>
      </trkpt>
      <trkpt lat="44.49164" lon="1.49405">
        <ele>289.01</ele>
        <time>2022-02-14T14:53:46Z</time>
      </trkpt>
      <trkpt lat="44.49191" lon="1.49412">
        <ele>284.69</ele>
        <time>2022-02-14T14:54:18Z</time>
      </trkpt>
      <trkpt lat="44.49204" lon="1.49406">
        <ele>283.25</ele>
        <time>2022-02-14T14:54:57Z</time>
      </trkpt>
      <trkpt lat="44.49228" lon="1.49394">
        <ele>288.05</ele>
        <time>2022-02-14T14:55:24Z</time>
      </trkpt>
      <trkpt lat="44.49243" lon="1.49377">
        <ele>292.86</ele>
        <time>2022-02-14T14:55:50Z</time>
      </trkpt>
      <trkpt lat="44.49257" lon="1.49361">
        <ele>298.15</ele>
        <time>2022-02-14T14:56:21Z</time>
      </trkpt>
      <trkpt lat="44.49272" lon="1.49346">
        <ele>302.47</ele>
        <time>2022-02-14T14:56:50Z</time>
      </trkpt>
      <trkpt lat="44.49288" lon="1.49328">
        <ele>307.28</ele>
        <time>2022-02-14T14:57:18Z</time>
      </trkpt>
      <trkpt lat="44.493" lon="1.49311">
        <ele>311.12</ele>
        <time>2022-02-14T14:57:41Z</time>
      </trkpt>
      <trkpt lat="44.49311" lon="1.4929">
        <ele>309.2</ele>
        <time>2022-02-14T14:58:01Z</time>
      </trkpt>
      <trkpt lat="44.49322" lon="1.49267">
        <ele>306.32</ele>
        <time>2022-02-14T14:58:23Z</time>
      </trkpt>
      <trkpt lat="44.49339" lon="1.49247">
        <ele>302.95</ele>
        <time>2022-02-14T14:58:44Z</time>
      </trkpt>
      <trkpt lat="44.49358" lon="1.49238">
        <ele>305.36</ele>
        <time>2022-02-14T14:59:12Z</time>
      </trkpt>
      <trkpt lat="44.4938" lon="1.49227">
        <ele>310.64</ele>
        <time>2022-02-14T14:59:43Z</time>
      </trkpt>
      <trkpt lat="44.49401" lon="1.49222">
        <ele>315.45</ele>
        <time>2022-02-14T15:00:12Z</time>
      </trkpt>
      <trkpt lat="44.49422" lon="1.4922">
        <ele>319.3</ele>
        <time>2022-02-14T15:00:38Z</time>
      </trkpt>
      <trkpt lat="44.49441" lon="1.4922">
        <ele>320.74</ele>
        <time>2022-02-14T15:01:05Z</time>
      </trkpt>
      <trkpt lat="44.49459" lon="1.49223">
        <ele>320.74</ele>
        <time>2022-02-14T15:03:07Z</time>
      </trkpt>
      <trkpt lat="44.49476" lon="1.4923">
        <ele>322.66</ele>
        <time>2022-02-14T15:03:30Z</time>
      </trkpt>
      <trkpt lat="44.49487" lon="1.4925">
        <ele>319.78</ele>
        <time>2022-02-14T15:03:50Z</time>
      </trkpt>
      <trkpt lat="44.49489" lon="1.49267">
        <ele>318.81</ele>
        <time>2022-02-14T15:04:41Z</time>
      </trkpt>
      <trkpt lat="44.49497" lon="1.49258">
        <ele>318.81</ele>
        <time>2022-02-14T15:10:07Z</time>
      </trkpt>
      <trkpt lat="44.49513" lon="1.49267">
        <ele>317.85</ele>
        <time>2022-02-14T15:10:29Z</time>
      </trkpt>
      <trkpt lat="44.49533" lon="1.49278">
        <ele>315.93</ele>
        <time>2022-02-14T15:10:49Z</time>
      </trkpt>
      <trkpt lat="44.49549" lon="1.49268">
        <ele>314.49</ele>
        <time>2022-02-14T15:11:10Z</time>
      </trkpt>
      <trkpt lat="44.49566" lon="1.49252">
        <ele>314.49</ele>
        <time>2022-02-14T15:11:31Z</time>
      </trkpt>
      <trkpt lat="44.49585" lon="1.49242">
        <ele>314.01</ele>
        <time>2022-02-14T15:11:49Z</time>
      </trkpt>
      <trkpt lat="44.49604" lon="1.49231">
        <ele>313.05</ele>
        <time>2022-02-14T15:12:06Z</time>
      </trkpt>
      <trkpt lat="44.49623" lon="1.4922">
        <ele>313.05</ele>
        <time>2022-02-14T15:12:24Z</time>
      </trkpt>
      <trkpt lat="44.49645" lon="1.49209">
        <ele>311.6</ele>
        <time>2022-02-14T15:12:43Z</time>
      </trkpt>
      <trkpt lat="44.49666" lon="1.49196">
        <ele>311.12</ele>
        <time>2022-02-14T15:13:02Z</time>
      </trkpt>
      <trkpt lat="44.49687" lon="1.49186">
        <ele>313.53</ele>
        <time>2022-02-14T15:13:22Z</time>
      </trkpt>
      <trkpt lat="44.49705" lon="1.49182">
        <ele>314.97</ele>
        <time>2022-02-14T15:13:40Z</time>
      </trkpt>
      <trkpt lat="44.49712" lon="1.4916">
        <ele>316.89</ele>
        <time>2022-02-14T15:14:00Z</time>
      </trkpt>
      <trkpt lat="44.49722" lon="1.49138">
        <ele>317.85</ele>
        <time>2022-02-14T15:14:19Z</time>
      </trkpt>
      <trkpt lat="44.4973" lon="1.49114">
        <ele>319.3</ele>
        <time>2022-02-14T15:14:45Z</time>
      </trkpt>
      <trkpt lat="44.49748" lon="1.49111">
        <ele>319.3</ele>
        <time>2022-02-14T15:15:07Z</time>
      </trkpt>
      <trkpt lat="44.49767" lon="1.49112">
        <ele>319.3</ele>
        <time>2022-02-14T15:15:34Z</time>
      </trkpt>
      <trkpt lat="44.49785" lon="1.49112">
        <ele>318.33</ele>
        <time>2022-02-14T15:16:05Z</time>
      </trkpt>
      <trkpt lat="44.49798" lon="1.49104">
        <ele>314.97</ele>
        <time>2022-02-14T15:16:24Z</time>
      </trkpt>
      <trkpt lat="44.49789" lon="1.49081">
        <ele>315.93</ele>
        <time>2022-02-14T15:16:42Z</time>
      </trkpt>
      <trkpt lat="44.49779" lon="1.49056">
        <ele>315.93</ele>
        <time>2022-02-14T15:16:59Z</time>
      </trkpt>
      <trkpt lat="44.49773" lon="1.4903">
        <ele>315.93</ele>
        <time>2022-02-14T15:17:15Z</time>
      </trkpt>
      <trkpt lat="44.49772" lon="1.49004">
        <ele>315.93</ele>
        <time>2022-02-14T15:17:30Z</time>
      </trkpt>
      <trkpt lat="44.49777" lon="1.48978">
        <ele>315.93</ele>
        <time>2022-02-14T15:17:47Z</time>
      </trkpt>
      <trkpt lat="44.49786" lon="1.48954">
        <ele>314.97</ele>
        <time>2022-02-14T15:18:03Z</time>
      </trkpt>
      <trkpt lat="44.49797" lon="1.48931">
        <ele>314.49</ele>
        <time>2022-02-14T15:18:20Z</time>
      </trkpt>
      <trkpt lat="44.49804" lon="1.48906">
        <ele>313.53</ele>
        <time>2022-02-14T15:18:36Z</time>
      </trkpt>
      <trkpt lat="44.49813" lon="1.48879">
        <ele>313.53</ele>
        <time>2022-02-14T15:18:53Z</time>
      </trkpt>
      <trkpt lat="44.49823" lon="1.48853">
        <ele>312.57</ele>
        <time>2022-02-14T15:19:10Z</time>
      </trkpt>
      <trkpt lat="44.49833" lon="1.4883">
        <ele>312.09</ele>
        <time>2022-02-14T15:19:26Z</time>
      </trkpt>
      <trkpt lat="44.49842" lon="1.48806">
        <ele>311.12</ele>
        <time>2022-02-14T15:19:42Z</time>
      </trkpt>
      <trkpt lat="44.4985" lon="1.48777">
        <ele>310.64</ele>
        <time>2022-02-14T15:20:01Z</time>
      </trkpt>
      <trkpt lat="44.4985" lon="1.48748">
        <ele>310.16</ele>
        <time>2022-02-14T15:20:18Z</time>
      </trkpt>
      <trkpt lat="44.4985" lon="1.48722">
        <ele>309.68</ele>
        <time>2022-02-14T15:20:35Z</time>
      </trkpt>
      <trkpt lat="44.49854" lon="1.48692">
        <ele>308.24</ele>
        <time>2022-02-14T15:20:53Z</time>
      </trkpt>
      <trkpt lat="44.49856" lon="1.48664">
        <ele>308.24</ele>
        <time>2022-02-14T15:21:11Z</time>
      </trkpt>
      <trkpt lat="44.49857" lon="1.48634">
        <ele>307.28</ele>
        <time>2022-02-14T15:21:28Z</time>
      </trkpt>
      <trkpt lat="44.49861" lon="1.48608">
        <ele>307.28</ele>
        <time>2022-02-14T15:21:44Z</time>
      </trkpt>
      <trkpt lat="44.4986" lon="1.48577">
        <ele>307.76</ele>
        <time>2022-02-14T15:22:03Z</time>
      </trkpt>
      <trkpt lat="44.49853" lon="1.4855">
        <ele>308.72</ele>
        <time>2022-02-14T15:22:20Z</time>
      </trkpt>
      <trkpt lat="44.49839" lon="1.4853">
        <ele>308.24</ele>
        <time>2022-02-14T15:22:38Z</time>
      </trkpt>
      <trkpt lat="44.49825" lon="1.48506">
        <ele>309.2</ele>
        <time>2022-02-14T15:22:56Z</time>
      </trkpt>
      <trkpt lat="44.49811" lon="1.48484">
        <ele>310.16</ele>
        <time>2022-02-14T15:23:15Z</time>
      </trkpt>
      <trkpt lat="44.49795" lon="1.48463">
        <ele>310.64</ele>
        <time>2022-02-14T15:23:34Z</time>
      </trkpt>
      <trkpt lat="44.49779" lon="1.48443">
        <ele>308.72</ele>
        <time>2022-02-14T15:23:54Z</time>
      </trkpt>
      <trkpt lat="44.49763" lon="1.48422">
        <ele>311.12</ele>
        <time>2022-02-14T15:24:12Z</time>
      </trkpt>
      <trkpt lat="44.49744" lon="1.48397">
        <ele>308.72</ele>
        <time>2022-02-14T15:24:31Z</time>
      </trkpt>
      <trkpt lat="44.4973" lon="1.48374">
        <ele>306.32</ele>
        <time>2022-02-14T15:24:50Z</time>
      </trkpt>
      <trkpt lat="44.49718" lon="1.48351">
        <ele>305.36</ele>
        <time>2022-02-14T15:25:07Z</time>
      </trkpt>
      <trkpt lat="44.49706" lon="1.48327">
        <ele>303.43</ele>
        <time>2022-02-14T15:25:26Z</time>
      </trkpt>
      <trkpt lat="44.49692" lon="1.48306">
        <ele>301.51</ele>
        <time>2022-02-14T15:25:43Z</time>
      </trkpt>
      <trkpt lat="44.49679" lon="1.48286">
        <ele>301.03</ele>
        <time>2022-02-14T15:25:59Z</time>
      </trkpt>
      <trkpt lat="44.4966" lon="1.48271">
        <ele>301.03</ele>
        <time>2022-02-14T15:26:17Z</time>
      </trkpt>
      <trkpt lat="44.49639" lon="1.48267">
        <ele>301.03</ele>
        <time>2022-02-14T15:26:33Z</time>
      </trkpt>
      <trkpt lat="44.4962" lon="1.4827">
        <ele>301.03</ele>
        <time>2022-02-14T15:26:48Z</time>
      </trkpt>
      <trkpt lat="44.496" lon="1.48271">
        <ele>301.03</ele>
        <time>2022-02-14T15:27:07Z</time>
      </trkpt>
      <trkpt lat="44.49579" lon="1.4827">
        <ele>300.07</ele>
        <time>2022-02-14T15:27:23Z</time>
      </trkpt>
      <trkpt lat="44.49558" lon="1.4827">
        <ele>298.63</ele>
        <time>2022-02-14T15:27:39Z</time>
      </trkpt>
      <trkpt lat="44.49538" lon="1.48273">
        <ele>298.63</ele>
        <time>2022-02-14T15:27:54Z</time>
      </trkpt>
      <trkpt lat="44.4952" lon="1.48275">
        <ele>298.15</ele>
        <time>2022-02-14T15:28:09Z</time>
      </trkpt>
      <trkpt lat="44.49501" lon="1.48277">
        <ele>298.15</ele>
        <time>2022-02-14T15:28:24Z</time>
      </trkpt>
      <trkpt lat="44.4948" lon="1.48276">
        <ele>298.63</ele>
        <time>2022-02-14T15:28:40Z</time>
      </trkpt>
      <trkpt lat="44.49461" lon="1.48274">
        <ele>298.15</ele>
        <time>2022-02-14T15:28:55Z</time>
      </trkpt>
      <trkpt lat="44.49443" lon="1.48276">
        <ele>296.7</ele>
        <time>2022-02-14T15:29:13Z</time>
      </trkpt>
      <trkpt lat="44.49424" lon="1.48285">
        <ele>295.26</ele>
        <time>2022-02-14T15:29:31Z</time>
      </trkpt>
      <trkpt lat="44.49405" lon="1.48293">
        <ele>293.82</ele>
        <time>2022-02-14T15:29:46Z</time>
      </trkpt>
      <trkpt lat="44.49386" lon="1.483">
        <ele>293.34</ele>
        <time>2022-02-14T15:30:00Z</time>
      </trkpt>
      <trkpt lat="44.49366" lon="1.48302">
        <ele>292.86</ele>
        <time>2022-02-14T15:30:16Z</time>
      </trkpt>
      <trkpt lat="44.49347" lon="1.48292">
        <ele>292.38</ele>
        <time>2022-02-14T15:30:31Z</time>
      </trkpt>
      <trkpt lat="44.49329" lon="1.48277">
        <ele>291.42</ele>
        <time>2022-02-14T15:30:46Z</time>
      </trkpt>
      <trkpt lat="44.49318" lon="1.48254">
        <ele>290.46</ele>
        <time>2022-02-14T15:31:01Z</time>
      </trkpt>
      <trkpt lat="44.49309" lon="1.4823">
        <ele>289.01</ele>
        <time>2022-02-14T15:31:16Z</time>
      </trkpt>
      <trkpt lat="44.49302" lon="1.48205">
        <ele>289.01</ele>
        <time>2022-02-14T15:31:31Z</time>
      </trkpt>
      <trkpt lat="44.49297" lon="1.4818">
        <ele>287.09</ele>
        <time>2022-02-14T15:31:46Z</time>
      </trkpt>
      <trkpt lat="44.49293" lon="1.48152">
        <ele>288.53</ele>
        <time>2022-02-14T15:32:03Z</time>
      </trkpt>
      <trkpt lat="44.49291" lon="1.48122">
        <ele>286.13</ele>
        <time>2022-02-14T15:32:21Z</time>
      </trkpt>
      <trkpt lat="44.49289" lon="1.4809">
        <ele>286.61</ele>
        <time>2022-02-14T15:32:38Z</time>
      </trkpt>
      <trkpt lat="44.4929" lon="1.48058">
        <ele>287.57</ele>
        <time>2022-02-14T15:32:56Z</time>
      </trkpt>
      <trkpt lat="44.49289" lon="1.48028">
        <ele>288.05</ele>
        <time>2022-02-14T15:33:13Z</time>
      </trkpt>
      <trkpt lat="44.49283" lon="1.48004">
        <ele>289.01</ele>
        <time>2022-02-14T15:33:32Z</time>
      </trkpt>
      <trkpt lat="44.49258" lon="1.47987">
        <ele>289.01</ele>
        <time>2022-02-14T15:34:37Z</time>
      </trkpt>
      <trkpt lat="44.49237" lon="1.47971">
        <ele>289.97</ele>
        <time>2022-02-14T15:34:52Z</time>
      </trkpt>
      <trkpt lat="44.49219" lon="1.47958">
        <ele>289.97</ele>
        <time>2022-02-14T15:35:00Z</time>
      </trkpt>
      <trkpt lat="44.49194" lon="1.47957">
        <ele>290.94</ele>
        <time>2022-02-14T15:35:16Z</time>
      </trkpt>
      <trkpt lat="44.49173" lon="1.47959">
        <ele>291.9</ele>
        <time>2022-02-14T15:35:30Z</time>
      </trkpt>
      <trkpt lat="44.49133" lon="1.47969">
        <ele>294.3</ele>
        <time>2022-02-14T15:36:06Z</time>
      </trkpt>
      <trkpt lat="44.49105" lon="1.47979">
        <ele>294.3</ele>
        <time>2022-02-14T15:36:27Z</time>
      </trkpt>
      <trkpt lat="44.49076" lon="1.4798">
        <ele>294.3</ele>
        <time>2022-02-14T15:36:50Z</time>
      </trkpt>
      <trkpt lat="44.49045" lon="1.47977">
        <ele>293.34</ele>
        <time>2022-02-14T15:37:13Z</time>
      </trkpt>
      <trkpt lat="44.49015" lon="1.47964">
        <ele>293.82</ele>
        <time>2022-02-14T15:37:44Z</time>
      </trkpt>
      <trkpt lat="44.49005" lon="1.47943">
        <ele>294.3</ele>
        <time>2022-02-14T15:38:02Z</time>
      </trkpt>
      <trkpt lat="44.48986" lon="1.47932">
        <ele>292.86</ele>
        <time>2022-02-14T15:38:20Z</time>
      </trkpt>
      <trkpt lat="44.48967" lon="1.47932">
        <ele>291.42</ele>
        <time>2022-02-14T15:38:37Z</time>
      </trkpt>
      <trkpt lat="44.48949" lon="1.47918">
        <ele>289.01</ele>
        <time>2022-02-14T15:38:55Z</time>
      </trkpt>
      <trkpt lat="44.48929" lon="1.47914">
        <ele>286.13</ele>
        <time>2022-02-14T15:39:13Z</time>
      </trkpt>
      <trkpt lat="44.48914" lon="1.47934">
        <ele>284.69</ele>
        <time>2022-02-14T15:39:31Z</time>
      </trkpt>
      <trkpt lat="44.48899" lon="1.47935">
        <ele>282.28</ele>
        <time>2022-02-14T15:39:54Z</time>
      </trkpt>
      <trkpt lat="44.4888" lon="1.47928">
        <ele>279.88</ele>
        <time>2022-02-14T15:40:12Z</time>
      </trkpt>
      <trkpt lat="44.48861" lon="1.47926">
        <ele>277</ele>
        <time>2022-02-14T15:40:29Z</time>
      </trkpt>
      <trkpt lat="44.48842" lon="1.47928">
        <ele>274.59</ele>
        <time>2022-02-14T15:40:50Z</time>
      </trkpt>
      <trkpt lat="44.48833" lon="1.47938">
        <ele>273.15</ele>
        <time>2022-02-14T15:41:37Z</time>
      </trkpt>
      <trkpt lat="44.48834" lon="1.47913">
        <ele>272.67</ele>
        <time>2022-02-14T15:42:05Z</time>
      </trkpt>
      <trkpt lat="44.48815" lon="1.47909">
        <ele>269.31</ele>
        <time>2022-02-14T15:42:28Z</time>
      </trkpt>
      <trkpt lat="44.48796" lon="1.47902">
        <ele>266.9</ele>
        <time>2022-02-14T15:42:46Z</time>
      </trkpt>
      <trkpt lat="44.48778" lon="1.47895">
        <ele>264.98</ele>
        <time>2022-02-14T15:43:03Z</time>
      </trkpt>
      <trkpt lat="44.4876" lon="1.47886">
        <ele>263.54</ele>
        <time>2022-02-14T15:43:21Z</time>
      </trkpt>
      <trkpt lat="44.48745" lon="1.47867">
        <ele>260.65</ele>
        <time>2022-02-14T15:43:42Z</time>
      </trkpt>
      <trkpt lat="44.48726" lon="1.47849">
        <ele>260.17</ele>
        <time>2022-02-14T15:43:58Z</time>
      </trkpt>
      <trkpt lat="44.48709" lon="1.47831">
        <ele>260.17</ele>
        <time>2022-02-14T15:44:14Z</time>
      </trkpt>
      <trkpt lat="44.48694" lon="1.47813">
        <ele>261.14</ele>
        <time>2022-02-14T15:44:30Z</time>
      </trkpt>
      <trkpt lat="44.48676" lon="1.47799">
        <ele>263.54</ele>
        <time>2022-02-14T15:44:54Z</time>
      </trkpt>
      <trkpt lat="44.4866" lon="1.47782">
        <ele>264.5</ele>
        <time>2022-02-14T15:45:11Z</time>
      </trkpt>
      <trkpt lat="44.48647" lon="1.47762">
        <ele>265.46</ele>
        <time>2022-02-14T15:45:27Z</time>
      </trkpt>
      <trkpt lat="44.48632" lon="1.47745">
        <ele>265.94</ele>
        <time>2022-02-14T15:45:43Z</time>
      </trkpt>
      <trkpt lat="44.48616" lon="1.47729">
        <ele>266.42</ele>
        <time>2022-02-14T15:46:02Z</time>
      </trkpt>
      <trkpt lat="44.486" lon="1.47715">
        <ele>266.42</ele>
        <time>2022-02-14T15:46:18Z</time>
      </trkpt>
      <trkpt lat="44.48585" lon="1.47699">
        <ele>264.02</ele>
        <time>2022-02-14T15:46:39Z</time>
      </trkpt>
      <trkpt lat="44.48568" lon="1.47685">
        <ele>262.1</ele>
        <time>2022-02-14T15:46:57Z</time>
      </trkpt>
      <trkpt lat="44.48548" lon="1.4768">
        <ele>260.17</ele>
        <time>2022-02-14T15:47:14Z</time>
      </trkpt>
      <trkpt lat="44.48528" lon="1.47678">
        <ele>258.25</ele>
        <time>2022-02-14T15:47:30Z</time>
      </trkpt>
      <trkpt lat="44.4851" lon="1.47684">
        <ele>256.33</ele>
        <time>2022-02-14T15:47:50Z</time>
      </trkpt>
      <trkpt lat="44.48494" lon="1.47673">
        <ele>254.89</ele>
        <time>2022-02-14T15:48:13Z</time>
      </trkpt>
      <trkpt lat="44.48476" lon="1.47663">
        <ele>252.48</ele>
        <time>2022-02-14T15:48:30Z</time>
      </trkpt>
      <trkpt lat="44.4846" lon="1.47652">
        <ele>250.56</ele>
        <time>2022-02-14T15:48:45Z</time>
      </trkpt>
      <trkpt lat="44.48446" lon="1.47636">
        <ele>250.08</ele>
        <time>2022-02-14T15:49:03Z</time>
      </trkpt>
      <trkpt lat="44.48427" lon="1.47629">
        <ele>249.6</ele>
        <time>2022-02-14T15:49:18Z</time>
      </trkpt>
      <trkpt lat="44.48412" lon="1.47613">
        <ele>248.64</ele>
        <time>2022-02-14T15:49:34Z</time>
      </trkpt>
      <trkpt lat="44.4841" lon="1.47587">
        <ele>248.64</ele>
        <time>2022-02-14T15:49:53Z</time>
      </trkpt>
      <trkpt lat="44.48413" lon="1.47562">
        <ele>246.72</ele>
        <time>2022-02-14T15:50:19Z</time>
      </trkpt>
      <trkpt lat="44.48401" lon="1.47538">
        <ele>244.79</ele>
        <time>2022-02-14T15:50:40Z</time>
      </trkpt>
      <trkpt lat="44.48392" lon="1.47509">
        <ele>242.39</ele>
        <time>2022-02-14T15:51:01Z</time>
      </trkpt>
      <trkpt lat="44.48382" lon="1.47477">
        <ele>239.02</ele>
        <time>2022-02-14T15:51:24Z</time>
      </trkpt>
      <trkpt lat="44.48367" lon="1.47441">
        <ele>235.66</ele>
        <time>2022-02-14T15:51:50Z</time>
      </trkpt>
      <trkpt lat="44.48346" lon="1.47422">
        <ele>228.93</ele>
        <time>2022-02-14T15:52:26Z</time>
      </trkpt>
      <trkpt lat="44.48322" lon="1.47409">
        <ele>224.12</ele>
        <time>2022-02-14T15:52:54Z</time>
      </trkpt>
      <trkpt lat="44.48298" lon="1.47391">
        <ele>220.76</ele>
        <time>2022-02-14T15:53:22Z</time>
      </trkpt>
      <trkpt lat="44.48276" lon="1.4736">
        <ele>218.36</ele>
        <time>2022-02-14T15:53:57Z</time>
      </trkpt>
      <trkpt lat="44.48262" lon="1.47325">
        <ele>213.07</ele>
        <time>2022-02-14T15:54:24Z</time>
      </trkpt>
      <trkpt lat="44.48245" lon="1.47298">
        <ele>209.22</ele>
        <time>2022-02-14T15:54:59Z</time>
      </trkpt>
      <trkpt lat="44.48227" lon="1.47277">
        <ele>206.34</ele>
        <time>2022-02-14T15:55:20Z</time>
      </trkpt>
      <trkpt lat="44.48202" lon="1.47259">
        <ele>202.98</ele>
        <time>2022-02-14T15:55:48Z</time>
      </trkpt>
      <trkpt lat="44.48178" lon="1.47242">
        <ele>198.17</ele>
        <time>2022-02-14T15:56:15Z</time>
      </trkpt>
      <trkpt lat="44.48156" lon="1.47231">
        <ele>194.32</ele>
        <time>2022-02-14T15:56:40Z</time>
      </trkpt>
      <trkpt lat="44.48133" lon="1.47219">
        <ele>192.4</ele>
        <time>2022-02-14T15:57:06Z</time>
      </trkpt>
      <trkpt lat="44.48108" lon="1.47199">
        <ele>188.08</ele>
        <time>2022-02-14T15:57:37Z</time>
      </trkpt>
      <trkpt lat="44.48085" lon="1.47177">
        <ele>183.27</ele>
        <time>2022-02-14T15:58:11Z</time>
      </trkpt>
      <trkpt lat="44.4806" lon="1.47157">
        <ele>176.54</ele>
        <time>2022-02-14T15:58:38Z</time>
      </trkpt>
      <trkpt lat="44.48041" lon="1.47136">
        <ele>170.29</ele>
        <time>2022-02-14T15:59:06Z</time>
      </trkpt>
      <trkpt lat="44.48019" lon="1.4712">
        <ele>165.96</ele>
        <time>2022-02-14T15:59:35Z</time>
      </trkpt>
      <trkpt lat="44.48" lon="1.47103">
        <ele>160.2</ele>
        <time>2022-02-14T16:00:03Z</time>
      </trkpt>
      <trkpt lat="44.47981" lon="1.47085">
        <ele>154.43</ele>
        <time>2022-02-14T16:00:29Z</time>
      </trkpt>
      <trkpt lat="44.47962" lon="1.47065">
        <ele>149.62</ele>
        <time>2022-02-14T16:00:54Z</time>
      </trkpt>
      <trkpt lat="44.47939" lon="1.47053">
        <ele>143.37</ele>
        <time>2022-02-14T16:01:23Z</time>
      </trkpt>
      <trkpt lat="44.47916" lon="1.47054">
        <ele>137.13</ele>
        <time>2022-02-14T16:01:54Z</time>
      </trkpt>
      <trkpt lat="44.4791" lon="1.47034">
        <ele>132.32</ele>
        <time>2022-02-14T16:02:19Z</time>
      </trkpt>
      <trkpt lat="44.4791" lon="1.47004">
        <ele>129.43</ele>
        <time>2022-02-14T16:02:42Z</time>
      </trkpt>
      <trkpt lat="44.47889" lon="1.46977">
        <ele>127.03</ele>
        <time>2022-02-14T16:04:57Z</time>
      </trkpt>
      <trkpt lat="44.47868" lon="1.46976">
        <ele>126.07</ele>
        <time>2022-02-14T16:05:16Z</time>
      </trkpt>
      <trkpt lat="44.47847" lon="1.46979">
        <ele>126.07</ele>
        <time>2022-02-14T16:05:35Z</time>
      </trkpt>
      <trkpt lat="44.47828" lon="1.46974">
        <ele>126.07</ele>
        <time>2022-02-14T16:05:52Z</time>
      </trkpt>
      <trkpt lat="44.4781" lon="1.46969">
        <ele>126.07</ele>
        <time>2022-02-14T16:06:08Z</time>
      </trkpt>
      <trkpt lat="44.4779" lon="1.46968">
        <ele>126.07</ele>
        <time>2022-02-14T16:06:24Z</time>
      </trkpt>
      <trkpt lat="44.47772" lon="1.46968">
        <ele>126.07</ele>
        <time>2022-02-14T16:06:41Z</time>
      </trkpt>
      <trkpt lat="44.47753" lon="1.46965">
        <ele>125.59</ele>
        <time>2022-02-14T16:06:57Z</time>
      </trkpt>
      <trkpt lat="44.47736" lon="1.46957">
        <ele>124.63</ele>
        <time>2022-02-14T16:07:13Z</time>
      </trkpt>
      <trkpt lat="44.47718" lon="1.46946">
        <ele>122.22</ele>
        <time>2022-02-14T16:07:29Z</time>
      </trkpt>
      <trkpt lat="44.47701" lon="1.46944">
        <ele>121.74</ele>
        <time>2022-02-14T16:07:44Z</time>
      </trkpt>
      <trkpt lat="44.47683" lon="1.46939">
        <ele>123.19</ele>
        <time>2022-02-14T16:08:00Z</time>
      </trkpt>
      <trkpt lat="44.47674" lon="1.46919">
        <ele>123.19</ele>
        <time>2022-02-14T16:08:16Z</time>
      </trkpt>
      <trkpt lat="44.47677" lon="1.46893">
        <ele>123.19</ele>
        <time>2022-02-14T16:08:32Z</time>
      </trkpt>
      <trkpt lat="44.47679" lon="1.46865">
        <ele>121.74</ele>
        <time>2022-02-14T16:08:50Z</time>
      </trkpt>
      <trkpt lat="44.47669" lon="1.46841">
        <ele>121.26</ele>
        <time>2022-02-14T16:09:08Z</time>
      </trkpt>
      <trkpt lat="44.47662" lon="1.46814">
        <ele>122.71</ele>
        <time>2022-02-14T16:10:45Z</time>
      </trkpt>
    </trkseg>
  </trk>
</gpx>